sensor_id;sensor_type;location;lat;lon;timestamp;P1;durP1;ratioP1;P2;durP2;ratioP2
76131;SDS011;64877;50.994;13.650;2023-03-26T00:01:31;6.13;;;0.75;;
76131;SDS011;64877;50.994;13.650;2023-03-26T00:04:00;2.92;;;0.80;;
76131;SDS011;64877;50.994;13.650;2023-03-26T00:06:28;3.28;;;1.02;;
76131;SDS011;64877;50.994;13.650;2023-03-26T00:08:55;3.63;;;0.90;;
76131;SDS011;64877;50.994;13.650;2023-03-26T00:11:23;1.75;;;0.70;;
76131;SDS011;64877;50.994;13.650;2023-03-26T00:13:50;4.55;;;0.80;;
76131;SDS011;64877;50.994;13.650;2023-03-26T00:16:18;1.42;;;0.55;;
76131;SDS011;64877;50.994;13.650;2023-03-26T00:18:45;4.03;;;0.82;;
76131;SDS011;64877;50.994;13.650;2023-03-26T00:21:14;3.25;;;0.80;;
76131;SDS011;64877;50.994;13.650;2023-03-26T00:23:41;5.00;;;0.85;;
76131;SDS011;64877;50.994;13.650;2023-03-26T00:26:07;5.43;;;0.68;;
76131;SDS011;64877;50.994;13.650;2023-03-26T00:28:35;4.00;;;1.02;;
76131;SDS011;64877;50.994;13.650;2023-03-26T00:31:02;7.60;;;1.13;;
76131;SDS011;64877;50.994;13.650;2023-03-26T00:33:29;4.70;;;0.70;;
76131;SDS011;64877;50.994;13.650;2023-03-26T00:35:58;2.95;;;0.47;;
76131;SDS011;64877;50.994;13.650;2023-03-26T00:38:25;1.52;;;0.57;;
76131;SDS011;64877;50.994;13.650;2023-03-26T00:40:52;3.53;;;0.50;;
76131;SDS011;64877;50.994;13.650;2023-03-26T00:43:19;3.83;;;0.90;;
76131;SDS011;64877;50.994;13.650;2023-03-26T00:45:50;2.42;;;0.50;;
76131;SDS011;64877;50.994;13.650;2023-03-26T00:48:18;3.63;;;0.90;;
76131;SDS011;64877;50.994;13.650;2023-03-26T00:50:45;3.00;;;0.90;;
76131;SDS011;64877;50.994;13.650;2023-03-26T00:53:11;3.78;;;0.90;;
76131;SDS011;64877;50.994;13.650;2023-03-26T00:55:38;5.95;;;1.00;;
76131;SDS011;64877;50.994;13.650;2023-03-26T00:58:09;2.95;;;0.75;;
76131;SDS011;64877;50.994;13.650;2023-03-26T01:03:39;3.58;;;0.77;;
76131;SDS011;64877;50.994;13.650;2023-03-26T01:06:10;2.35;;;0.60;;
76131;SDS011;64877;50.994;13.650;2023-03-26T01:08:40;2.40;;;0.70;;
76131;SDS011;64877;50.994;13.650;2023-03-26T01:11:30;4.43;;;0.77;;
76131;SDS011;64877;50.994;13.650;2023-03-26T01:13:57;2.38;;;0.70;;
76131;SDS011;64877;50.994;13.650;2023-03-26T01:16:26;1.58;;;0.60;;
76131;SDS011;64877;50.994;13.650;2023-03-26T01:18:55;3.20;;;0.70;;
76131;SDS011;64877;50.994;13.650;2023-03-26T01:21:23;3.28;;;0.60;;
76131;SDS011;64877;50.994;13.650;2023-03-26T01:24:03;3.00;;;0.73;;
76131;SDS011;64877;50.994;13.650;2023-03-26T01:29:03;2.10;;;0.52;;
76131;SDS011;64877;50.994;13.650;2023-03-26T01:31:36;2.92;;;0.60;;
76131;SDS011;64877;50.994;13.650;2023-03-26T01:34:18;1.98;;;0.70;;
76131;SDS011;64877;50.994;13.650;2023-03-26T01:37:18;4.57;;;0.90;;
76131;SDS011;64877;50.994;13.650;2023-03-26T01:39:57;3.47;;;0.60;;
76131;SDS011;64877;50.994;13.650;2023-03-26T01:42:36;1.77;;;0.57;;
76131;SDS011;64877;50.994;13.650;2023-03-26T01:47:54;3.20;;;0.73;;
76131;SDS011;64877;50.994;13.650;2023-03-26T01:50:20;1.30;;;0.50;;
76131;SDS011;64877;50.994;13.650;2023-03-26T01:52:46;3.08;;;0.55;;
76131;SDS011;64877;50.994;13.650;2023-03-26T01:55:11;2.08;;;0.30;;
76131;SDS011;64877;50.994;13.650;2023-03-26T02:05:19;1.60;;;0.50;;
76131;SDS011;64877;50.994;13.650;2023-03-26T02:10:29;4.07;;;0.80;;
76131;SDS011;64877;50.994;13.650;2023-03-26T02:12:59;5.28;;;0.77;;
76131;SDS011;64877;50.994;13.650;2023-03-26T02:15:25;4.80;;;0.90;;
76131;SDS011;64877;50.994;13.650;2023-03-26T02:17:50;3.15;;;0.50;;
76131;SDS011;64877;50.994;13.650;2023-03-26T02:20:18;2.15;;;0.70;;
76131;SDS011;64877;50.994;13.650;2023-03-26T02:22:44;5.40;;;0.70;;
76131;SDS011;64877;50.994;13.650;2023-03-26T02:25:13;1.05;;;0.45;;
76131;SDS011;64877;50.994;13.650;2023-03-26T02:27:40;2.92;;;0.73;;
76131;SDS011;64877;50.994;13.650;2023-03-26T02:30:08;2.70;;;0.90;;
76131;SDS011;64877;50.994;13.650;2023-03-26T02:32:35;2.35;;;0.60;;
76131;SDS011;64877;50.994;13.650;2023-03-26T02:35:03;2.85;;;0.60;;
76131;SDS011;64877;50.994;13.650;2023-03-26T02:37:29;1.58;;;0.40;;
76131;SDS011;64877;50.994;13.650;2023-03-26T02:39:58;2.85;;;0.60;;
76131;SDS011;64877;50.994;13.650;2023-03-26T02:42:23;1.33;;;0.43;;
76131;SDS011;64877;50.994;13.650;2023-03-26T02:44:49;2.53;;;0.75;;
76131;SDS011;64877;50.994;13.650;2023-03-26T02:47:14;3.38;;;0.57;;
76131;SDS011;64877;50.994;13.650;2023-03-26T02:49:40;1.42;;;0.45;;
76131;SDS011;64877;50.994;13.650;2023-03-26T02:52:06;2.65;;;0.50;;
76131;SDS011;64877;50.994;13.650;2023-03-26T02:54:32;4.32;;;0.47;;
76131;SDS011;64877;50.994;13.650;2023-03-26T02:56:59;2.10;;;0.50;;
76131;SDS011;64877;50.994;13.650;2023-03-26T02:59:24;2.97;;;0.70;;
76131;SDS011;64877;50.994;13.650;2023-03-26T03:01:50;2.72;;;0.45;;
76131;SDS011;64877;50.994;13.650;2023-03-26T03:04:15;1.58;;;0.47;;
76131;SDS011;64877;50.994;13.650;2023-03-26T03:06:42;1.75;;;0.55;;
76131;SDS011;64877;50.994;13.650;2023-03-26T03:09:08;1.65;;;0.45;;
76131;SDS011;64877;50.994;13.650;2023-03-26T03:11:35;2.30;;;0.55;;
76131;SDS011;64877;50.994;13.650;2023-03-26T03:14:01;2.28;;;0.50;;
76131;SDS011;64877;50.994;13.650;2023-03-26T03:16:27;2.05;;;0.43;;
76131;SDS011;64877;50.994;13.650;2023-03-26T03:18:54;7.07;;;0.90;;
76131;SDS011;64877;50.994;13.650;2023-03-26T03:21:24;2.85;;;0.68;;
76131;SDS011;64877;50.994;13.650;2023-03-26T03:23:52;2.00;;;0.55;;
76131;SDS011;64877;50.994;13.650;2023-03-26T03:26:19;3.03;;;0.50;;
76131;SDS011;64877;50.994;13.650;2023-03-26T03:28:46;4.63;;;0.70;;
76131;SDS011;64877;50.994;13.650;2023-03-26T03:31:16;2.78;;;0.65;;
76131;SDS011;64877;50.994;13.650;2023-03-26T03:33:41;2.25;;;0.60;;
76131;SDS011;64877;50.994;13.650;2023-03-26T03:36:08;3.42;;;0.60;;
76131;SDS011;64877;50.994;13.650;2023-03-26T03:38:39;2.72;;;0.55;;
76131;SDS011;64877;50.994;13.650;2023-03-26T03:41:06;3.65;;;0.57;;
76131;SDS011;64877;50.994;13.650;2023-03-26T03:43:32;3.03;;;0.80;;
76131;SDS011;64877;50.994;13.650;2023-03-26T03:46:00;4.25;;;1.38;;
76131;SDS011;64877;50.994;13.650;2023-03-26T03:48:26;4.28;;;0.60;;
76131;SDS011;64877;50.994;13.650;2023-03-26T03:50:55;3.85;;;1.00;;
76131;SDS011;64877;50.994;13.650;2023-03-26T03:53:21;2.30;;;0.80;;
76131;SDS011;64877;50.994;13.650;2023-03-26T03:55:49;2.80;;;0.82;;
76131;SDS011;64877;50.994;13.650;2023-03-26T03:58:21;3.75;;;0.80;;
76131;SDS011;64877;50.994;13.650;2023-03-26T04:00:49;6.70;;;0.90;;
76131;SDS011;64877;50.994;13.650;2023-03-26T04:03:15;3.90;;;0.80;;
76131;SDS011;64877;50.994;13.650;2023-03-26T04:05:42;2.33;;;0.70;;
76131;SDS011;64877;50.994;13.650;2023-03-26T04:08:13;3.20;;;0.60;;
76131;SDS011;64877;50.994;13.650;2023-03-26T04:10:42;3.97;;;1.17;;
76131;SDS011;64877;50.994;13.650;2023-03-26T04:13:11;5.93;;;1.00;;
76131;SDS011;64877;50.994;13.650;2023-03-26T04:15:38;2.88;;;0.70;;
76131;SDS011;64877;50.994;13.650;2023-03-26T04:18:04;2.95;;;0.93;;
76131;SDS011;64877;50.994;13.650;2023-03-26T04:20:34;3.53;;;0.70;;
76131;SDS011;64877;50.994;13.650;2023-03-26T04:23:05;4.10;;;0.90;;
76131;SDS011;64877;50.994;13.650;2023-03-26T04:25:31;5.80;;;1.00;;
76131;SDS011;64877;50.994;13.650;2023-03-26T04:27:58;3.65;;;0.80;;
76131;SDS011;64877;50.994;13.650;2023-03-26T04:30:30;3.83;;;0.82;;
76131;SDS011;64877;50.994;13.650;2023-03-26T04:32:57;4.75;;;0.90;;
76131;SDS011;64877;50.994;13.650;2023-03-26T04:35:27;3.03;;;0.82;;
76131;SDS011;64877;50.994;13.650;2023-03-26T04:38:01;3.00;;;0.90;;
76131;SDS011;64877;50.994;13.650;2023-03-26T04:40:30;2.83;;;0.80;;
76131;SDS011;64877;50.994;13.650;2023-03-26T04:42:58;2.17;;;0.60;;
76131;SDS011;64877;50.994;13.650;2023-03-26T04:45:28;4.00;;;0.77;;
76131;SDS011;64877;50.994;13.650;2023-03-26T04:47:57;3.25;;;0.68;;
76131;SDS011;64877;50.994;13.650;2023-03-26T04:50:23;6.95;;;0.90;;
76131;SDS011;64877;50.994;13.650;2023-03-26T04:52:49;3.40;;;1.23;;
76131;SDS011;64877;50.994;13.650;2023-03-26T04:55:36;2.65;;;0.70;;
76131;SDS011;64877;50.994;13.650;2023-03-26T04:58:08;8.23;;;1.35;;
76131;SDS011;64877;50.994;13.650;2023-03-26T05:00:33;3.03;;;0.63;;
76131;SDS011;64877;50.994;13.650;2023-03-26T05:02:59;2.75;;;0.65;;
76131;SDS011;64877;50.994;13.650;2023-03-26T05:05:25;3.40;;;0.50;;
76131;SDS011;64877;50.994;13.650;2023-03-26T05:07:53;3.55;;;0.70;;
76131;SDS011;64877;50.994;13.650;2023-03-26T05:10:19;4.57;;;0.75;;
76131;SDS011;64877;50.994;13.650;2023-03-26T05:12:45;4.03;;;0.77;;
76131;SDS011;64877;50.994;13.650;2023-03-26T05:15:11;2.67;;;0.80;;
76131;SDS011;64877;50.994;13.650;2023-03-26T05:17:38;2.30;;;0.50;;
76131;SDS011;64877;50.994;13.650;2023-03-26T05:20:06;1.23;;;0.40;;
76131;SDS011;64877;50.994;13.650;2023-03-26T05:22:47;3.85;;;0.82;;
76131;SDS011;64877;50.994;13.650;2023-03-26T05:25:13;2.60;;;0.88;;
76131;SDS011;64877;50.994;13.650;2023-03-26T05:27:38;4.18;;;0.88;;
76131;SDS011;64877;50.994;13.650;2023-03-26T05:30:04;2.58;;;0.65;;
76131;SDS011;64877;50.994;13.650;2023-03-26T05:32:31;3.72;;;1.00;;
76131;SDS011;64877;50.994;13.650;2023-03-26T05:34:57;5.55;;;0.80;;
76131;SDS011;64877;50.994;13.650;2023-03-26T05:37:23;5.47;;;0.98;;
76131;SDS011;64877;50.994;13.650;2023-03-26T05:39:52;5.00;;;0.90;;
76131;SDS011;64877;50.994;13.650;2023-03-26T05:42:19;3.90;;;0.70;;
76131;SDS011;64877;50.994;13.650;2023-03-26T05:44:44;5.40;;;1.00;;
76131;SDS011;64877;50.994;13.650;2023-03-26T05:47:10;3.25;;;0.90;;
76131;SDS011;64877;50.994;13.650;2023-03-26T05:49:35;5.57;;;1.10;;
76131;SDS011;64877;50.994;13.650;2023-03-26T05:52:00;4.20;;;1.33;;
76131;SDS011;64877;50.994;13.650;2023-03-26T05:54:26;4.18;;;0.82;;
76131;SDS011;64877;50.994;13.650;2023-03-26T05:56:51;5.43;;;0.77;;
76131;SDS011;64877;50.994;13.650;2023-03-26T05:59:17;5.90;;;0.80;;
76131;SDS011;64877;50.994;13.650;2023-03-26T06:01:42;4.20;;;0.80;;
76131;SDS011;64877;50.994;13.650;2023-03-26T06:04:10;2.88;;;0.70;;
76131;SDS011;64877;50.994;13.650;2023-03-26T06:06:37;5.50;;;0.70;;
76131;SDS011;64877;50.994;13.650;2023-03-26T06:09:03;5.75;;;0.85;;
76131;SDS011;64877;50.994;13.650;2023-03-26T06:11:29;2.95;;;0.63;;
76131;SDS011;64877;50.994;13.650;2023-03-26T06:13:56;5.35;;;1.13;;
76131;SDS011;64877;50.994;13.650;2023-03-26T06:16:21;5.93;;;1.05;;
76131;SDS011;64877;50.994;13.650;2023-03-26T06:18:47;3.83;;;0.80;;
76131;SDS011;64877;50.994;13.650;2023-03-26T06:21:15;3.53;;;0.70;;
76131;SDS011;64877;50.994;13.650;2023-03-26T06:23:41;5.63;;;1.17;;
76131;SDS011;64877;50.994;13.650;2023-03-26T06:26:06;3.75;;;0.80;;
76131;SDS011;64877;50.994;13.650;2023-03-26T06:28:31;3.53;;;0.75;;
76131;SDS011;64877;50.994;13.650;2023-03-26T06:30:58;3.33;;;1.20;;
76131;SDS011;64877;50.994;13.650;2023-03-26T06:33:25;5.10;;;1.10;;
76131;SDS011;64877;50.994;13.650;2023-03-26T06:35:51;4.05;;;1.30;;
76131;SDS011;64877;50.994;13.650;2023-03-26T06:38:16;5.07;;;0.90;;
76131;SDS011;64877;50.994;13.650;2023-03-26T06:40:42;10.00;;;1.48;;
76131;SDS011;64877;50.994;13.650;2023-03-26T06:43:07;3.38;;;0.90;;
76131;SDS011;64877;50.994;13.650;2023-03-26T06:45:33;5.78;;;0.90;;
76131;SDS011;64877;50.994;13.650;2023-03-26T06:47:58;4.63;;;1.23;;
76131;SDS011;64877;50.994;13.650;2023-03-26T06:50:24;3.83;;;1.08;;
76131;SDS011;64877;50.994;13.650;2023-03-26T06:52:52;4.03;;;1.20;;
76131;SDS011;64877;50.994;13.650;2023-03-26T06:55:18;3.47;;;0.80;;
76131;SDS011;64877;50.994;13.650;2023-03-26T06:57:47;3.20;;;0.90;;
76131;SDS011;64877;50.994;13.650;2023-03-26T07:00:13;6.13;;;1.10;;
76131;SDS011;64877;50.994;13.650;2023-03-26T07:02:39;4.47;;;1.48;;
76131;SDS011;64877;50.994;13.650;2023-03-26T07:05:04;6.35;;;1.35;;
76131;SDS011;64877;50.994;13.650;2023-03-26T07:07:30;3.15;;;0.93;;
76131;SDS011;64877;50.994;13.650;2023-03-26T07:09:56;5.28;;;1.48;;
76131;SDS011;64877;50.994;13.650;2023-03-26T07:12:21;4.15;;;0.98;;
76131;SDS011;64877;50.994;13.650;2023-03-26T07:14:47;3.97;;;1.30;;
76131;SDS011;64877;50.994;13.650;2023-03-26T07:17:12;3.47;;;0.85;;
76131;SDS011;64877;50.994;13.650;2023-03-26T07:19:38;5.43;;;0.85;;
76131;SDS011;64877;50.994;13.650;2023-03-26T07:22:03;3.90;;;0.90;;
76131;SDS011;64877;50.994;13.650;2023-03-26T07:24:29;4.65;;;0.77;;
76131;SDS011;64877;50.994;13.650;2023-03-26T07:34:50;5.32;;;0.90;;
76131;SDS011;64877;50.994;13.650;2023-03-26T07:38:25;3.30;;;0.80;;
76131;SDS011;64877;50.994;13.650;2023-03-26T07:40:36;4.03;;;0.90;;
76131;SDS011;64877;50.994;13.650;2023-03-26T07:45:52;2.63;;;1.02;;
76131;SDS011;64877;50.994;13.650;2023-03-26T07:48:25;6.38;;;1.20;;
76131;SDS011;64877;50.994;13.650;2023-03-26T07:50:53;3.55;;;0.90;;
76131;SDS011;64877;50.994;13.650;2023-03-26T07:53:20;4.80;;;1.17;;
76131;SDS011;64877;50.994;13.650;2023-03-26T08:07:04;6.82;;;1.20;;
76131;SDS011;64877;50.994;13.650;2023-03-26T08:12:40;3.78;;;1.00;;
76131;SDS011;64877;50.994;13.650;2023-03-26T08:17:59;3.90;;;1.33;;
76131;SDS011;64877;50.994;13.650;2023-03-26T08:23:11;5.47;;;1.40;;
76131;SDS011;64877;50.994;13.650;2023-03-26T08:31:12;6.20;;;1.25;;
76131;SDS011;64877;50.994;13.650;2023-03-26T08:33:39;5.68;;;1.33;;
76131;SDS011;64877;50.994;13.650;2023-03-26T08:36:05;2.30;;;0.90;;
76131;SDS011;64877;50.994;13.650;2023-03-26T08:47:05;7.75;;;3.15;;
76131;SDS011;64877;50.994;13.650;2023-03-26T08:54:57;5.15;;;1.15;;
76131;SDS011;64877;50.994;13.650;2023-03-26T09:00:36;7.45;;;1.08;;
76131;SDS011;64877;50.994;13.650;2023-03-26T09:39:55;5.97;;;1.20;;
76131;SDS011;64877;50.994;13.650;2023-03-26T09:42:42;4.03;;;1.08;;
76131;SDS011;64877;50.994;13.650;2023-03-26T09:45:53;7.15;;;1.20;;
76131;SDS011;64877;50.994;13.650;2023-03-26T09:50:59;3.28;;;0.80;;
76131;SDS011;64877;50.994;13.650;2023-03-26T09:58:52;4.35;;;1.02;;
76131;SDS011;64877;50.994;13.650;2023-03-26T10:04:36;3.92;;;0.98;;
76131;SDS011;64877;50.994;13.650;2023-03-26T10:13:16;6.15;;;1.30;;
76131;SDS011;64877;50.994;13.650;2023-03-26T10:18:34;5.28;;;0.98;;
76131;SDS011;64877;50.994;13.650;2023-03-26T10:24:08;3.28;;;1.10;;
76131;SDS011;64877;50.994;13.650;2023-03-26T10:42:52;3.30;;;0.93;;
76131;SDS011;64877;50.994;13.650;2023-03-26T10:53:46;4.63;;;1.00;;
76131;SDS011;64877;50.994;13.650;2023-03-26T10:58:40;2.03;;;0.70;;
76131;SDS011;64877;50.994;13.650;2023-03-26T11:03:53;2.15;;;0.63;;
76131;SDS011;64877;50.994;13.650;2023-03-26T11:09:06;4.90;;;1.02;;
76131;SDS011;64877;50.994;13.650;2023-03-26T11:28:26;1.73;;;0.60;;
76131;SDS011;64877;50.994;13.650;2023-03-26T11:34:15;2.00;;;0.65;;
76131;SDS011;64877;50.994;13.650;2023-03-26T11:36:50;2.30;;;0.70;;
76131;SDS011;64877;50.994;13.650;2023-03-26T11:39:24;5.07;;;0.82;;
76131;SDS011;64877;50.994;13.650;2023-03-26T11:41:54;2.20;;;0.80;;
76131;SDS011;64877;50.994;13.650;2023-03-26T11:44:33;2.95;;;0.85;;
76131;SDS011;64877;50.994;13.650;2023-03-26T11:47:04;2.75;;;0.90;;
76131;SDS011;64877;50.994;13.650;2023-03-26T11:49:34;3.25;;;0.93;;
76131;SDS011;64877;50.994;13.650;2023-03-26T11:52:01;2.88;;;0.60;;
76131;SDS011;64877;50.994;13.650;2023-03-26T11:54:27;4.32;;;0.80;;
76131;SDS011;64877;50.994;13.650;2023-03-26T11:56:57;3.75;;;0.98;;
76131;SDS011;64877;50.994;13.650;2023-03-26T12:07:20;3.67;;;0.90;;
76131;SDS011;64877;50.994;13.650;2023-03-26T12:12:18;5.30;;;0.75;;
76131;SDS011;64877;50.994;13.650;2023-03-26T12:14:45;3.15;;;0.88;;
76131;SDS011;64877;50.994;13.650;2023-03-26T12:17:23;3.38;;;0.82;;
76131;SDS011;64877;50.994;13.650;2023-03-26T12:19:49;3.78;;;0.98;;
76131;SDS011;64877;50.994;13.650;2023-03-26T12:27:49;5.32;;;1.10;;
76131;SDS011;64877;50.994;13.650;2023-03-26T12:32:50;3.65;;;0.70;;
76131;SDS011;64877;50.994;13.650;2023-03-26T12:35:26;2.97;;;0.80;;
76131;SDS011;64877;50.994;13.650;2023-03-26T12:37:54;3.35;;;0.85;;
76131;SDS011;64877;50.994;13.650;2023-03-26T12:40:37;3.33;;;0.90;;
76131;SDS011;64877;50.994;13.650;2023-03-26T12:43:19;3.88;;;0.70;;
76131;SDS011;64877;50.994;13.650;2023-03-26T12:45:50;2.92;;;0.60;;
76131;SDS011;64877;50.994;13.650;2023-03-26T12:48:18;2.42;;;0.77;;
76131;SDS011;64877;50.994;13.650;2023-03-26T12:56:35;2.45;;;0.65;;
76131;SDS011;64877;50.994;13.650;2023-03-26T13:02:39;5.97;;;2.03;;
76131;SDS011;64877;50.994;13.650;2023-03-26T13:13:24;6.65;;;1.58;;
76131;SDS011;64877;50.994;13.650;2023-03-26T13:15:44;6.07;;;1.70;;
76131;SDS011;64877;50.994;13.650;2023-03-26T13:21:00;3.30;;;0.90;;
76131;SDS011;64877;50.994;13.650;2023-03-26T13:34:45;5.75;;;1.23;;
76131;SDS011;64877;50.994;13.650;2023-03-26T13:37:27;3.10;;;0.57;;
76131;SDS011;64877;50.994;13.650;2023-03-26T13:47:48;4.45;;;0.70;;
76131;SDS011;64877;50.994;13.650;2023-03-26T13:50:28;5.00;;;1.23;;
76131;SDS011;64877;50.994;13.650;2023-03-26T13:53:08;2.35;;;0.68;;
76131;SDS011;64877;50.994;13.650;2023-03-26T13:55:56;1.65;;;0.60;;
76131;SDS011;64877;50.994;13.650;2023-03-26T14:01:22;4.88;;;1.23;;
76131;SDS011;64877;50.994;13.650;2023-03-26T14:07:11;6.50;;;2.05;;
76131;SDS011;64877;50.994;13.650;2023-03-26T14:12:36;3.00;;;0.80;;
76131;SDS011;64877;50.994;13.650;2023-03-26T14:15:14;2.80;;;1.02;;
76131;SDS011;64877;50.994;13.650;2023-03-26T14:34:29;3.25;;;0.80;;
76131;SDS011;64877;50.994;13.650;2023-03-26T14:42:45;1.90;;;0.75;;
76131;SDS011;64877;50.994;13.650;2023-03-26T14:53:47;3.08;;;0.80;;
76131;SDS011;64877;50.994;13.650;2023-03-26T15:02:09;2.58;;;1.00;;
76131;SDS011;64877;50.994;13.650;2023-03-26T15:07:25;2.28;;;0.60;;
76131;SDS011;64877;50.994;13.650;2023-03-26T15:29:10;2.45;;;0.75;;
76131;SDS011;64877;50.994;13.650;2023-03-26T15:53:41;4.97;;;1.60;;
76131;SDS011;64877;50.994;13.650;2023-03-26T16:12:52;2.42;;;1.00;;
76131;SDS011;64877;50.994;13.650;2023-03-26T16:15:38;2.45;;;1.00;;
76131;SDS011;64877;50.994;13.650;2023-03-26T16:20:34;7.32;;;1.35;;
76131;SDS011;64877;50.994;13.650;2023-03-26T16:23:26;3.75;;;1.10;;
76131;SDS011;64877;50.994;13.650;2023-03-26T16:28:34;3.40;;;1.40;;
76131;SDS011;64877;50.994;13.650;2023-03-26T16:33:36;3.55;;;1.23;;
76131;SDS011;64877;50.994;13.650;2023-03-26T16:36:14;4.05;;;1.60;;
76131;SDS011;64877;50.994;13.650;2023-03-26T16:46:48;4.43;;;1.30;;
76131;SDS011;64877;50.994;13.650;2023-03-26T16:49:26;3.67;;;1.52;;
76131;SDS011;64877;50.994;13.650;2023-03-26T16:57:19;3.55;;;1.50;;
76131;SDS011;64877;50.994;13.650;2023-03-26T17:03:41;3.92;;;1.40;;
76131;SDS011;64877;50.994;13.650;2023-03-26T17:08:21;3.33;;;1.30;;
76131;SDS011;64877;50.994;13.650;2023-03-26T17:10:54;2.53;;;1.20;;
76131;SDS011;64877;50.994;13.650;2023-03-26T17:13:43;2.40;;;1.20;;
76131;SDS011;64877;50.994;13.650;2023-03-26T17:16:23;2.65;;;0.93;;
76131;SDS011;64877;50.994;13.650;2023-03-26T17:27:24;5.60;;;1.98;;
76131;SDS011;64877;50.994;13.650;2023-03-26T17:32:58;6.45;;;2.25;;
76131;SDS011;64877;50.994;13.650;2023-03-26T17:35:47;4.82;;;2.22;;
76131;SDS011;64877;50.994;13.650;2023-03-26T17:43:08;6.22;;;2.22;;
76131;SDS011;64877;50.994;13.650;2023-03-26T17:45:36;6.05;;;2.55;;
76131;SDS011;64877;50.994;13.650;2023-03-26T17:48:20;3.97;;;1.35;;
76131;SDS011;64877;50.994;13.650;2023-03-26T17:50:55;4.40;;;1.50;;
76131;SDS011;64877;50.994;13.650;2023-03-26T17:53:27;3.70;;;1.30;;
76131;SDS011;64877;50.994;13.650;2023-03-26T17:55:58;3.65;;;1.45;;
76131;SDS011;64877;50.994;13.650;2023-03-26T17:58:43;5.60;;;1.48;;
76131;SDS011;64877;50.994;13.650;2023-03-26T18:01:26;5.75;;;2.15;;
76131;SDS011;64877;50.994;13.650;2023-03-26T18:04:13;2.90;;;1.80;;
76131;SDS011;64877;50.994;13.650;2023-03-26T18:07:00;3.17;;;1.63;;
76131;SDS011;64877;50.994;13.650;2023-03-26T18:10:09;2.42;;;1.17;;
76131;SDS011;64877;50.994;13.650;2023-03-26T18:15:38;4.80;;;3.08;;
76131;SDS011;64877;50.994;13.650;2023-03-26T18:18:28;3.10;;;1.52;;
76131;SDS011;64877;50.994;13.650;2023-03-26T18:20:55;7.60;;;3.67;;
76131;SDS011;64877;50.994;13.650;2023-03-26T18:23:25;12.88;;;6.63;;
76131;SDS011;64877;50.994;13.650;2023-03-26T18:25:55;13.43;;;6.00;;
76131;SDS011;64877;50.994;13.650;2023-03-26T18:28:34;12.07;;;5.78;;
76131;SDS011;64877;50.994;13.650;2023-03-26T18:31:15;11.13;;;3.83;;
76131;SDS011;64877;50.994;13.650;2023-03-26T18:33:44;7.50;;;3.47;;
76131;SDS011;64877;50.994;13.650;2023-03-26T18:36:11;5.43;;;3.28;;
76131;SDS011;64877;50.994;13.650;2023-03-26T18:38:39;7.47;;;3.50;;
76131;SDS011;64877;50.994;13.650;2023-03-26T18:41:05;8.35;;;3.80;;
76131;SDS011;64877;50.994;13.650;2023-03-26T18:43:32;8.45;;;4.75;;
76131;SDS011;64877;50.994;13.650;2023-03-26T18:45:59;7.80;;;3.78;;
76131;SDS011;64877;50.994;13.650;2023-03-26T18:48:25;6.93;;;3.40;;
76131;SDS011;64877;50.994;13.650;2023-03-26T18:53:21;9.32;;;4.63;;
76131;SDS011;64877;50.994;13.650;2023-03-26T18:55:49;8.68;;;5.10;;
76131;SDS011;64877;50.994;13.650;2023-03-26T18:58:21;6.80;;;4.47;;
76131;SDS011;64877;50.994;13.650;2023-03-26T19:00:57;8.35;;;4.82;;
76131;SDS011;64877;50.994;13.650;2023-03-26T19:03:25;9.32;;;4.50;;
76131;SDS011;64877;50.994;13.650;2023-03-26T19:05:52;4.97;;;2.42;;
76131;SDS011;64877;50.994;13.650;2023-03-26T19:10:47;4.93;;;2.72;;
76131;SDS011;64877;50.994;13.650;2023-03-26T19:13:14;4.72;;;2.22;;
76131;SDS011;64877;50.994;13.650;2023-03-26T19:15:40;8.57;;;4.07;;
76131;SDS011;64877;50.994;13.650;2023-03-26T19:18:11;12.02;;;4.80;;
76131;SDS011;64877;50.994;13.650;2023-03-26T19:21:01;8.55;;;3.80;;
76131;SDS011;64877;50.994;13.650;2023-03-26T19:23:31;9.65;;;3.60;;
76131;SDS011;64877;50.994;13.650;2023-03-26T19:25:59;4.35;;;2.00;;
76131;SDS011;64877;50.994;13.650;2023-03-26T19:28:32;3.13;;;1.67;;
76131;SDS011;64877;50.994;13.650;2023-03-26T19:31:07;3.65;;;1.90;;
76131;SDS011;64877;50.994;13.650;2023-03-26T19:33:35;4.85;;;1.92;;
76131;SDS011;64877;50.994;13.650;2023-03-26T19:41:15;3.78;;;2.00;;
76131;SDS011;64877;50.994;13.650;2023-03-26T19:44:29;3.42;;;1.60;;
76131;SDS011;64877;50.994;13.650;2023-03-26T19:46:49;2.67;;;1.52;;
76131;SDS011;64877;50.994;13.650;2023-03-26T19:49:50;1.67;;;1.00;;
76131;SDS011;64877;50.994;13.650;2023-03-26T19:57:34;8.93;;;3.08;;
76131;SDS011;64877;50.994;13.650;2023-03-26T20:00:01;4.35;;;2.22;;
76131;SDS011;64877;50.994;13.650;2023-03-26T20:02:39;2.65;;;1.20;;
76131;SDS011;64877;50.994;13.650;2023-03-26T20:05:23;4.55;;;1.15;;
76131;SDS011;64877;50.994;13.650;2023-03-26T20:07:50;1.92;;;0.90;;
76131;SDS011;64877;50.994;13.650;2023-03-26T20:10:18;3.75;;;1.02;;
76131;SDS011;64877;50.994;13.650;2023-03-26T20:12:43;2.95;;;1.17;;
76131;SDS011;64877;50.994;13.650;2023-03-26T20:17:48;9.30;;;5.07;;
76131;SDS011;64877;50.994;13.650;2023-03-26T20:20:16;32.28;;;14.43;;
76131;SDS011;64877;50.994;13.650;2023-03-26T20:22:41;6.45;;;3.33;;
76131;SDS011;64877;50.994;13.650;2023-03-26T20:25:15;5.70;;;2.83;;
76131;SDS011;64877;50.994;13.650;2023-03-26T20:27:43;3.40;;;1.48;;
76131;SDS011;64877;50.994;13.650;2023-03-26T20:30:09;3.63;;;1.55;;
76131;SDS011;64877;50.994;13.650;2023-03-26T20:32:35;4.82;;;1.85;;
76131;SDS011;64877;50.994;13.650;2023-03-26T20:35:08;2.83;;;1.40;;
76131;SDS011;64877;50.994;13.650;2023-03-26T20:37:54;3.55;;;1.60;;
76131;SDS011;64877;50.994;13.650;2023-03-26T20:40:20;3.05;;;1.70;;
76131;SDS011;64877;50.994;13.650;2023-03-26T20:42:45;3.50;;;2.15;;
76131;SDS011;64877;50.994;13.650;2023-03-26T20:45:21;4.70;;;2.08;;
76131;SDS011;64877;50.994;13.650;2023-03-26T20:47:48;4.40;;;1.92;;
76131;SDS011;64877;50.994;13.650;2023-03-26T20:50:15;3.63;;;2.15;;
76131;SDS011;64877;50.994;13.650;2023-03-26T20:52:46;4.15;;;2.10;;
76131;SDS011;64877;50.994;13.650;2023-03-26T20:55:12;3.55;;;1.35;;
76131;SDS011;64877;50.994;13.650;2023-03-26T20:57:39;3.75;;;1.65;;
76131;SDS011;64877;50.994;13.650;2023-03-26T21:00:05;3.63;;;1.90;;
76131;SDS011;64877;50.994;13.650;2023-03-26T21:02:46;4.40;;;2.42;;
76131;SDS011;64877;50.994;13.650;2023-03-26T21:05:13;5.65;;;2.67;;
76131;SDS011;64877;50.994;13.650;2023-03-26T21:07:40;6.25;;;2.17;;
76131;SDS011;64877;50.994;13.650;2023-03-26T21:12:34;5.55;;;2.25;;
76131;SDS011;64877;50.994;13.650;2023-03-26T21:15:13;4.95;;;2.80;;
76131;SDS011;64877;50.994;13.650;2023-03-26T21:17:38;7.72;;;3.17;;
76131;SDS011;64877;50.994;13.650;2023-03-26T21:20:04;6.35;;;2.55;;
76131;SDS011;64877;50.994;13.650;2023-03-26T21:27:53;12.32;;;3.72;;
76131;SDS011;64877;50.994;13.650;2023-03-26T21:30:33;5.25;;;3.45;;
76131;SDS011;64877;50.994;13.650;2023-03-26T21:32:59;5.97;;;3.05;;
76131;SDS011;64877;50.994;13.650;2023-03-26T21:35:25;4.93;;;2.35;;
76131;SDS011;64877;50.994;13.650;2023-03-26T21:37:51;4.15;;;2.45;;
76131;SDS011;64877;50.994;13.650;2023-03-26T21:40:17;5.78;;;2.33;;
76131;SDS011;64877;50.994;13.650;2023-03-26T21:42:44;6.20;;;2.35;;
76131;SDS011;64877;50.994;13.650;2023-03-26T21:45:12;4.45;;;2.42;;
76131;SDS011;64877;50.994;13.650;2023-03-26T21:47:39;4.70;;;2.85;;
76131;SDS011;64877;50.994;13.650;2023-03-26T21:50:06;4.40;;;2.40;;
76131;SDS011;64877;50.994;13.650;2023-03-26T21:52:33;4.10;;;2.50;;